Time;durP1;ratioP1;P1;durP2;ratioP2;P2;SDS_P1;SDS_P2;PMS_P1;PMS_P2;Temp;Humidity;BMP_temperature;BMP_pressure;BME280_temperature;BME280_humidity;BME280_pressure;Samples;Min_cycle;Max_cycle;Signal;HPM_P1;HPM_P2
2022/09/21 00:00:58;;;;;;;4.5;3;;;;;;;5.5;76.25879;96049.44;;;;
2022/09/21 00:02:04;;;;;;;4.5;3;;;;;;;5.5;76.25879;96049.44;;;;
2022/09/21 00:03:05;;;;;;;4.5;3;;;;;;;5.5;76.25879;96049.44;;;;
2022/09/21 00:04:06;;;;;;;4.5;3;;;;;;;5.5;76.25879;96049.44;;;;
2022/09/21 00:05:06;;;;;;;4.5;3;;;;;;;5.5;76.25879;96049.44;;;;
2022/09/21 00:06:07;;;;;;;4.5;3;;;;;;;5.5;76.25879;96049.44;;;;
2022/09/21 00:07:10;;;;;;;4.5;3;;;;;;;5.5;76.25879;96049.44;;;;
2022/09/21 00:08:11;;;;;;;4.5;3;;;;;;;5.5;76.25879;96049.44;;;;
2022/09/21 00:09:13;;;;;;;4.5;3;;;;;;;5.5;76.25879;96049.44;;;;
2022/09/21 00:10:14;;;;;;;4.5;3;;;;;;;5.5;76.25879;96049.44;;;;
2022/09/21 00:11:15;;;;;;;4.75;3.05;;;;;;;5.3;76.4043;96050.33;;;;
2022/09/21 00:12:19;;;;;;;4.75;3.05;;;;;;;5.3;76.4043;96050.33;;;;
2022/09/21 00:13:19;;;;;;;4.75;3.05;;;;;;;5.3;76.4043;96050.33;;;;
2022/09/21 00:14:21;;;;;;;4.75;3.05;;;;;;;5.3;76.4043;96050.33;;;;
2022/09/21 00:15:22;;;;;;;4.75;3.05;;;;;;;5.3;76.4043;96050.33;;;;
2022/09/21 00:16:22;;;;;;;4.75;3.05;;;;;;;5.3;76.4043;96050.33;;;;
2022/09/21 00:17:23;;;;;;;4.75;3.05;;;;;;;5.3;76.4043;96050.33;;;;
2022/09/21 00:18:23;;;;;;;4.75;3.05;;;;;;;5.3;76.4043;96050.33;;;;
2022/09/21 00:19:25;;;;;;;4.75;3.05;;;;;;;5.3;76.4043;96050.33;;;;
2022/09/21 00:20:26;;;;;;;4.75;3.05;;;;;;;5.3;76.4043;96050.33;;;;
2022/09/21 00:21:27;;;;;;;4.75;3.05;;;;;;;5.3;76.4043;96050.33;;;;
2022/09/21 00:22:28;;;;;;;7.849999;3.1;;;;;;;5.17;76.63574;96045.94;;;;
2022/09/21 00:23:28;;;;;;;7.849999;3.1;;;;;;;5.17;76.63574;96045.94;;;;
2022/09/21 00:24:29;;;;;;;7.849999;3.1;;;;;;;5.17;76.63574;96045.94;;;;
2022/09/21 00:25:29;;;;;;;7.849999;3.1;;;;;;;5.17;76.63574;96045.94;;;;
2022/09/21 00:26:30;;;;;;;7.849999;3.1;;;;;;;5.17;76.63574;96045.94;;;;
2022/09/21 00:27:31;;;;;;;7.849999;3.1;;;;;;;5.17;76.63574;96045.94;;;;
2022/09/21 00:28:31;;;;;;;7.849999;3.1;;;;;;;5.17;76.63574;96045.94;;;;
2022/09/21 00:29:32;;;;;;;7.849999;3.1;;;;;;;5.17;76.63574;96045.94;;;;
2022/09/21 00:30:32;;;;;;;7.849999;3.1;;;;;;;5.17;76.63574;96045.94;;;;
2022/09/21 00:31:33;;;;;;;7.849999;3.1;;;;;;;5.17;76.63574;96045.94;;;;
2022/09/21 00:32:34;;;;;;;3.35;2.9;;;;;;;5.06;76.73438;96052.37;;;;
2022/09/21 00:33:36;;;;;;;3.35;2.9;;;;;;;5.06;76.73438;96052.37;;;;
2022/09/21 00:34:38;;;;;;;3.35;2.9;;;;;;;5.06;76.73438;96052.37;;;;
2022/09/21 00:35:39;;;;;;;3.35;2.9;;;;;;;5.06;76.73438;96052.37;;;;
2022/09/21 00:36:39;;;;;;;3.35;2.9;;;;;;;5.06;76.73438;96052.37;;;;
2022/09/21 00:37:40;;;;;;;3.35;2.9;;;;;;;5.06;76.73438;96052.37;;;;
2022/09/21 00:38:40;;;;;;;3.35;2.9;;;;;;;5.06;76.73438;96052.37;;;;
2022/09/21 00:39:41;;;;;;;3.35;2.9;;;;;;;5.06;76.73438;96052.37;;;;
2022/09/21 00:40:42;;;;;;;3.35;2.9;;;;;;;5.06;76.73438;96052.37;;;;
2022/09/21 00:41:42;;;;;;;3.35;2.9;;;;;;;5.06;76.73438;96052.37;;;;
2022/09/21 00:42:43;;;;;;;3.35;2.9;;;;;;;5.06;76.73438;96052.37;;;;
2022/09/21 00:43:43;;;;;;;4.85;3.199999;;;;;;;4.94;76.77539;96051.05;;;;
2022/09/21 00:44:46;;;;;;;4.85;3.199999;;;;;;;4.94;76.77539;96051.05;;;;
2022/09/21 00:45:46;;;;;;;4.85;3.199999;;;;;;;4.94;76.77539;96051.05;;;;
2022/09/21 00:46:50;;;;;;;4.85;3.199999;;;;;;;4.94;76.77539;96051.05;;;;
2022/09/21 00:47:54;;;;;;;4.85;3.199999;;;;;;;4.94;76.77539;96051.05;;;;
2022/09/21 00:49:02;;;;;;;4.85;3.199999;;;;;;;4.94;76.77539;96051.05;;;;
2022/09/21 00:50:02;;;;;;;4.85;3.199999;;;;;;;4.94;76.77539;96051.05;;;;
2022/09/21 00:51:08;;;;;;;4.85;3.199999;;;;;;;4.94;76.77539;96051.05;;;;
2022/09/21 00:52:09;;;;;;;4.85;3.199999;;;;;;;4.94;76.77539;96051.05;;;;
2022/09/21 00:53:12;;;;;;;4.85;3.199999;;;;;;;4.94;76.77539;96051.05;;;;
2022/09/21 00:54:13;;;;;;;4.5;2.85;;;;;;;4.84;76.87695;96057.72;;;;
2022/09/21 00:55:19;;;;;;;4.5;2.85;;;;;;;4.84;76.87695;96057.72;;;;
2022/09/21 00:56:25;;;;;;;4.5;2.85;;;;;;;4.84;76.87695;96057.72;;;;
2022/09/21 00:57:25;;;;;;;4.5;2.85;;;;;;;4.84;76.87695;96057.72;;;;
2022/09/21 00:58:29;;;;;;;4.5;2.85;;;;;;;4.84;76.87695;96057.72;;;;
2022/09/21 00:59:34;;;;;;;4.5;2.85;;;;;;;4.84;76.87695;96057.72;;;;
2022/09/21 01:00:39;;;;;;;4.5;2.85;;;;;;;4.84;76.87695;96057.72;;;;
2022/09/21 01:01:41;;;;;;;4.5;2.85;;;;;;;4.84;76.87695;96057.72;;;;
2022/09/21 01:02:42;;;;;;;4.5;2.85;;;;;;;4.84;76.87695;96057.72;;;;
2022/09/21 01:03:44;;;;;;;4.5;2.85;;;;;;;4.84;76.87695;96057.72;;;;
2022/09/21 01:04:46;;;;;;;3.8;2.85;;;;;;;4.77;76.96973;96052.77;;;;
2022/09/21 01:05:47;;;;;;;3.8;2.85;;;;;;;4.77;76.96973;96052.77;;;;
2022/09/21 01:06:49;;;;;;;3.8;2.85;;;;;;;4.77;76.96973;96052.77;;;;
2022/09/21 01:07:49;;;;;;;3.8;2.85;;;;;;;4.77;76.96973;96052.77;;;;
2022/09/21 01:08:51;;;;;;;3.8;2.85;;;;;;;4.77;76.96973;96052.77;;;;
2022/09/21 01:09:55;;;;;;;3.8;2.85;;;;;;;4.77;76.96973;96052.77;;;;
2022/09/21 01:11:00;;;;;;;3.8;2.85;;;;;;;4.77;76.96973;96052.77;;;;
2022/09/21 01:12:20;;;;;;;3.8;2.85;;;;;;;4.77;76.96973;96052.77;;;;
2022/09/21 01:13:36;;;;;;;3.8;2.85;;;;;;;4.77;76.96973;96052.77;;;;
2022/09/21 01:14:48;;;;;;;3.8;2.85;;;;;;;4.77;76.96973;96052.77;;;;
2022/09/21 01:16:01;;;;;;;4.1;2.900001;;;;;;;4.67;77.06738;96043.38;;;;
2022/09/21 01:17:11;;;;;;;4.1;2.900001;;;;;;;4.67;77.06738;96043.38;;;;
2022/09/21 01:18:16;;;;;;;4.1;2.900001;;;;;;;4.67;77.06738;96043.38;;;;
2022/09/21 01:19:25;;;;;;;4.1;2.900001;;;;;;;4.67;77.06738;96043.38;;;;
2022/09/21 01:24:45;;;;;;;4.1;2.900001;;;;;;;4.67;77.06738;96043.38;;;;
2022/09/21 01:25:54;;;;;;;4.849999;3.1;;;;;;;4.59;77.13867;96037.63;;;;
2022/09/21 01:27:07;;;;;;;4.849999;3.1;;;;;;;4.59;77.13867;96037.63;;;;
2022/09/21 01:28:32;;;;;;;4.849999;3.1;;;;;;;4.59;77.13867;96037.63;;;;
2022/09/21 01:30:14;;;;;;;4.849999;3.1;;;;;;;4.59;77.13867;96037.63;;;;
2022/09/21 01:31:18;;;;;;;4.849999;3.1;;;;;;;4.59;77.13867;96037.63;;;;
2022/09/21 01:32:24;;;;;;;4.849999;3.1;;;;;;;4.59;77.13867;96037.63;;;;
2022/09/21 01:33:29;;;;;;;4.849999;3.1;;;;;;;4.59;77.13867;96037.63;;;;
2022/09/21 01:34:35;;;;;;;4.849999;3.1;;;;;;;4.59;77.13867;96037.63;;;;
2022/09/21 01:35:41;;;;;;;4.849999;3.1;;;;;;;4.59;77.13867;96037.63;;;;
2022/09/21 01:36:46;;;;;;;5.3;2.95;;;;;;;4.51;77.27051;96042.92;;;;
2022/09/21 01:37:51;;;;;;;5.3;2.95;;;;;;;4.51;77.27051;96042.92;;;;
2022/09/21 01:38:57;;;;;;;5.3;2.95;;;;;;;4.51;77.27051;96042.92;;;;
2022/09/21 01:40:06;;;;;;;5.3;2.95;;;;;;;4.51;77.27051;96042.92;;;;
2022/09/21 01:41:10;;;;;;;5.3;2.95;;;;;;;4.51;77.27051;96042.92;;;;
2022/09/21 01:42:14;;;;;;;5.3;2.95;;;;;;;4.51;77.27051;96042.92;;;;
2022/09/21 01:43:19;;;;;;;5.3;2.95;;;;;;;4.51;77.27051;96042.92;;;;
2022/09/21 01:44:23;;;;;;;5.3;2.95;;;;;;;4.51;77.27051;96042.92;;;;
2022/09/21 01:45:27;;;;;;;5.3;2.95;;;;;;;4.51;77.27051;96042.92;;;;
2022/09/21 01:46:32;;;;;;;5.3;2.95;;;;;;;4.51;77.27051;96042.92;;;;
2022/09/21 01:47:35;;;;;;;5.5;2.900001;;;;;;;4.39;77.3457;96049.3;;;;
2022/09/21 01:48:40;;;;;;;5.5;2.900001;;;;;;;4.39;77.3457;96049.3;;;;
2022/09/21 01:49:45;;;;;;;5.5;2.900001;;;;;;;4.39;77.3457;96049.3;;;;
2022/09/21 01:50:51;;;;;;;5.5;2.900001;;;;;;;4.39;77.3457;96049.3;;;;
2022/09/21 01:51:57;;;;;;;5.5;2.900001;;;;;;;4.39;77.3457;96049.3;;;;
2022/09/21 01:53:01;;;;;;;5.5;2.900001;;;;;;;4.39;77.3457;96049.3;;;;
2022/09/21 01:54:08;;;;;;;5.5;2.900001;;;;;;;4.39;77.3457;96049.3;;;;
2022/09/21 01:55:12;;;;;;;5.5;2.900001;;;;;;;4.39;77.3457;96049.3;;;;
2022/09/21 01:56:17;;;;;;;5.5;2.900001;;;;;;;4.39;77.3457;96049.3;;;;
2022/09/21 01:57:22;;;;;;;5.5;2.900001;;;;;;;4.39;77.3457;96049.3;;;;
2022/09/21 01:58:32;;;;;;;4;2.8;;;;;;;4.3;77.44531;96047.72;;;;
2022/09/21 01:59:38;;;;;;;4;2.8;;;;;;;4.3;77.44531;96047.72;;;;
2022/09/21 02:00:49;;;;;;;4;2.8;;;;;;;4.3;77.44531;96047.72;;;;
2022/09/21 02:01:53;;;;;;;4;2.8;;;;;;;4.3;77.44531;96047.72;;;;
2022/09/21 02:02:59;;;;;;;4;2.8;;;;;;;4.3;77.44531;96047.72;;;;
2022/09/21 02:04:04;;;;;;;4;2.8;;;;;;;4.3;77.44531;96047.72;;;;
2022/09/21 02:05:09;;;;;;;4;2.8;;;;;;;4.3;77.44531;96047.72;;;;
2022/09/21 02:06:11;;;;;;;4;2.8;;;;;;;4.3;77.44531;96047.72;;;;
2022/09/21 02:07:14;;;;;;;4;2.8;;;;;;;4.3;77.44531;96047.72;;;;
2022/09/21 02:08:15;;;;;;;7.25;3.45;;;;;;;4.22;77.52734;96048.47;;;;
2022/09/21 02:09:16;;;;;;;7.25;3.45;;;;;;;4.22;77.52734;96048.47;;;;
2022/09/21 02:10:19;;;;;;;7.25;3.45;;;;;;;4.22;77.52734;96048.47;;;;
2022/09/21 02:11:23;;;;;;;7.25;3.45;;;;;;;4.22;77.52734;96048.47;;;;
2022/09/21 02:12:24;;;;;;;7.25;3.45;;;;;;;4.22;77.52734;96048.47;;;;
2022/09/21 02:13:26;;;;;;;7.25;3.45;;;;;;;4.22;77.52734;96048.47;;;;
2022/09/21 02:14:33;;;;;;;7.25;3.45;;;;;;;4.22;77.52734;96048.47;;;;
2022/09/21 02:15:36;;;;;;;7.25;3.45;;;;;;;4.22;77.52734;96048.47;;;;
2022/09/21 02:16:49;;;;;;;7.25;3.45;;;;;;;4.22;77.52734;96048.47;;;;
2022/09/21 02:18:04;;;;;;;7.25;3.45;;;;;;;4.22;77.52734;96048.47;;;;
2022/09/21 02:19:14;;;;;;;5.85;3;;;;;;;4.16;77.64453;96045.59;;;;
2022/09/21 02:20:20;;;;;;;5.85;3;;;;;;;4.16;77.64453;96045.59;;;;
2022/09/21 02:21:27;;;;;;;5.85;3;;;;;;;4.16;77.64453;96045.59;;;;
2022/09/21 02:22:32;;;;;;;5.85;3;;;;;;;4.16;77.64453;96045.59;;;;
2022/09/21 02:23:39;;;;;;;5.85;3;;;;;;;4.16;77.64453;96045.59;;;;
2022/09/21 02:24:46;;;;;;;5.85;3;;;;;;;4.16;77.64453;96045.59;;;;
2022/09/21 02:25:50;;;;;;;5.85;3;;;;;;;4.16;77.64453;96045.59;;;;
2022/09/21 02:26:58;;;;;;;5.85;3;;;;;;;4.16;77.64453;96045.59;;;;
2022/09/21 02:28:03;;;;;;;5.85;3;;;;;;;4.16;77.64453;96045.59;;;;
2022/09/21 02:29:13;;;;;;;5.85;3;;;;;;;4.16;77.64453;96045.59;;;;
2022/09/21 02:30:20;;;;;;;4.1;2.900001;;;;;;;4.05;77.75098;96042.81;;;;
2022/09/21 02:31:23;;;;;;;4.1;2.900001;;;;;;;4.05;77.75098;96042.81;;;;
2022/09/21 02:32:32;;;;;;;4.1;2.900001;;;;;;;4.05;77.75098;96042.81;;;;
2022/09/21 02:33:43;;;;;;;4.1;2.900001;;;;;;;4.05;77.75098;96042.81;;;;
2022/09/21 02:34:54;;;;;;;4.1;2.900001;;;;;;;4.05;77.75098;96042.81;;;;
2022/09/21 02:36:01;;;;;;;4.1;2.900001;;;;;;;4.05;77.75098;96042.81;;;;
2022/09/21 02:37:09;;;;;;;4.1;2.900001;;;;;;;4.05;77.75098;96042.81;;;;
2022/09/21 02:38:16;;;;;;;4.1;2.900001;;;;;;;4.05;77.75098;96042.81;;;;
2022/09/21 02:39:28;;;;;;;4.1;2.900001;;;;;;;4.05;77.75098;96042.81;;;;
2022/09/21 02:40:34;;;;;;;4.2;2.8;;;;;;;4;77.86816;96051.19;;;;
2022/09/21 02:41:39;;;;;;;4.2;2.8;;;;;;;4;77.86816;96051.19;;;;
2022/09/21 02:42:51;;;;;;;4.2;2.8;;;;;;;4;77.86816;96051.19;;;;
2022/09/21 02:43:57;;;;;;;4.2;2.8;;;;;;;4;77.86816;96051.19;;;;
2022/09/21 02:45:01;;;;;;;4.2;2.8;;;;;;;4;77.86816;96051.19;;;;
2022/09/21 02:46:07;;;;;;;4.2;2.8;;;;;;;4;77.86816;96051.19;;;;
2022/09/21 02:47:13;;;;;;;4.2;2.8;;;;;;;4;77.86816;96051.19;;;;
2022/09/21 02:48:20;;;;;;;4.2;2.8;;;;;;;4;77.86816;96051.19;;;;
2022/09/21 02:49:25;;;;;;;4.2;2.8;;;;;;;4;77.86816;96051.19;;;;
2022/09/21 02:50:32;;;;;;;4.2;2.8;;;;;;;4;77.86816;96051.19;;;;
2022/09/21 02:51:39;;;;;;;3.15;2.85;;;;;;;3.9;77.89355;96043.86;;;;
2022/09/21 02:52:43;;;;;;;3.15;2.85;;;;;;;3.9;77.89355;96043.86;;;;
2022/09/21 02:53:44;;;;;;;3.15;2.85;;;;;;;3.9;77.89355;96043.86;;;;
2022/09/21 02:54:46;;;;;;;3.15;2.85;;;;;;;3.9;77.89355;96043.86;;;;
2022/09/21 02:55:51;;;;;;;3.15;2.85;;;;;;;3.9;77.89355;96043.86;;;;
2022/09/21 02:56:54;;;;;;;3.15;2.85;;;;;;;3.9;77.89355;96043.86;;;;
2022/09/21 02:57:57;;;;;;;3.15;2.85;;;;;;;3.9;77.89355;96043.86;;;;
2022/09/21 02:59:01;;;;;;;3.15;2.85;;;;;;;3.9;77.89355;96043.86;;;;
2022/09/21 03:00:04;;;;;;;3.15;2.85;;;;;;;3.9;77.89355;96043.86;;;;
2022/09/21 03:01:07;;;;;;;3.15;2.85;;;;;;;3.9;77.89355;96043.86;;;;
2022/09/21 03:02:11;;;;;;;3.8;3;;;;;;;3.79;77.95801;96046.31;;;;
2022/09/21 03:03:14;;;;;;;3.8;3;;;;;;;3.79;77.95801;96046.31;;;;
2022/09/21 03:04:16;;;;;;;3.8;3;;;;;;;3.79;77.95801;96046.31;;;;
2022/09/21 03:05:18;;;;;;;3.8;3;;;;;;;3.79;77.95801;96046.31;;;;
2022/09/21 03:06:19;;;;;;;3.8;3;;;;;;;3.79;77.95801;96046.31;;;;
2022/09/21 03:07:19;;;;;;;3.8;3;;;;;;;3.79;77.95801;96046.31;;;;
2022/09/21 03:08:20;;;;;;;3.8;3;;;;;;;3.79;77.95801;96046.31;;;;
2022/09/21 03:09:23;;;;;;;3.8;3;;;;;;;3.79;77.95801;96046.31;;;;
2022/09/21 03:10:24;;;;;;;3.8;3;;;;;;;3.79;77.95801;96046.31;;;;
2022/09/21 03:11:24;;;;;;;3.8;3;;;;;;;3.79;77.95801;96046.31;;;;
2022/09/21 03:12:25;;;;;;;3.55;3.25;;;;;;;3.71;78.0918;96050.16;;;;
2022/09/21 03:13:26;;;;;;;3.55;3.25;;;;;;;3.71;78.0918;96050.16;;;;
2022/09/21 03:14:27;;;;;;;3.55;3.25;;;;;;;3.71;78.0918;96050.16;;;;
2022/09/21 03:15:27;;;;;;;3.55;3.25;;;;;;;3.71;78.0918;96050.16;;;;
2022/09/21 03:16:28;;;;;;;3.55;3.25;;;;;;;3.71;78.0918;96050.16;;;;
2022/09/21 03:17:28;;;;;;;3.55;3.25;;;;;;;3.71;78.0918;96050.16;;;;
2022/09/21 03:18:29;;;;;;;3.55;3.25;;;;;;;3.71;78.0918;96050.16;;;;
2022/09/21 03:19:30;;;;;;;3.55;3.25;;;;;;;3.71;78.0918;96050.16;;;;
2022/09/21 03:20:31;;;;;;;3.55;3.25;;;;;;;3.71;78.0918;96050.16;;;;
2022/09/21 03:21:32;;;;;;;3.55;3.25;;;;;;;3.71;78.0918;96050.16;;;;
2022/09/21 03:22:32;;;;;;;3.55;3.25;;;;;;;3.71;78.0918;96050.16;;;;
2022/09/21 03:23:32;;;;;;;3.65;2.75;;;;;;;3.61;78.49609;96057.67;;;;
2022/09/21 03:24:48;;;;;;;3.65;2.75;;;;;;;3.61;78.49609;96057.67;;;;
2022/09/21 03:25:51;;;;;;;3.65;2.75;;;;;;;3.61;78.49609;96057.67;;;;
2022/09/21 03:26:51;;;;;;;3.65;2.75;;;;;;;3.61;78.49609;96057.67;;;;
2022/09/21 03:27:52;;;;;;;3.65;2.75;;;;;;;3.61;78.49609;96057.67;;;;
2022/09/21 03:28:53;;;;;;;3.65;2.75;;;;;;;3.61;78.49609;96057.67;;;;
2022/09/21 03:29:54;;;;;;;3.65;2.75;;;;;;;3.61;78.49609;96057.67;;;;
2022/09/21 03:30:54;;;;;;;3.65;2.75;;;;;;;3.61;78.49609;96057.67;;;;
2022/09/21 03:31:55;;;;;;;3.65;2.75;;;;;;;3.61;78.49609;96057.67;;;;
2022/09/21 03:32:55;;;;;;;3.65;2.75;;;;;;;3.61;78.49609;96057.67;;;;
2022/09/21 03:33:56;;;;;;;3.85;2.65;;;;;;;3.53;78.48047;96061.11;;;;
2022/09/21 03:34:57;;;;;;;3.85;2.65;;;;;;;3.53;78.48047;96061.11;;;;
2022/09/21 03:35:57;;;;;;;3.85;2.65;;;;;;;3.53;78.48047;96061.11;;;;
2022/09/21 03:36:59;;;;;;;3.85;2.65;;;;;;;3.53;78.48047;96061.11;;;;
2022/09/21 03:37:59;;;;;;;3.85;2.65;;;;;;;3.53;78.48047;96061.11;;;;
2022/09/21 03:39:01;;;;;;;3.85;2.65;;;;;;;3.53;78.48047;96061.11;;;;
2022/09/21 03:40:01;;;;;;;3.85;2.65;;;;;;;3.53;78.48047;96061.11;;;;
2022/09/21 03:41:02;;;;;;;3.85;2.65;;;;;;;3.53;78.48047;96061.11;;;;
2022/09/21 03:42:03;;;;;;;3.85;2.65;;;;;;;3.53;78.48047;96061.11;;;;
2022/09/21 03:43:04;;;;;;;3.85;2.65;;;;;;;3.53;78.48047;96061.11;;;;
2022/09/21 03:44:05;;;;;;;3.85;2.65;;;;;;;3.53;78.48047;96061.11;;;;
2022/09/21 03:45:05;;;;;;;5.2;3.45;;;;;;;3.45;78.49023;96059.22;;;;
2022/09/21 03:46:08;;;;;;;5.2;3.45;;;;;;;3.45;78.49023;96059.22;;;;
2022/09/21 03:47:09;;;;;;;5.2;3.45;;;;;;;3.45;78.49023;96059.22;;;;
2022/09/21 03:48:09;;;;;;;5.2;3.45;;;;;;;3.45;78.49023;96059.22;;;;
2022/09/21 03:49:10;;;;;;;5.2;3.45;;;;;;;3.45;78.49023;96059.22;;;;
2022/09/21 03:50:11;;;;;;;5.2;3.45;;;;;;;3.45;78.49023;96059.22;;;;
2022/09/21 03:51:11;;;;;;;5.2;3.45;;;;;;;3.45;78.49023;96059.22;;;;
2022/09/21 03:52:12;;;;;;;5.2;3.45;;;;;;;3.45;78.49023;96059.22;;;;
2022/09/21 03:53:12;;;;;;;5.2;3.45;;;;;;;3.45;78.49023;96059.22;;;;
2022/09/21 03:54:13;;;;;;;5.2;3.45;;;;;;;3.45;78.49023;96059.22;;;;
2022/09/21 03:55:14;;;;;;;3.9;3.6;;;;;;;3.34;78.94531;96052.92;;;;
2022/09/21 03:56:15;;;;;;;3.9;3.6;;;;;;;3.34;78.94531;96052.92;;;;
2022/09/21 03:57:15;;;;;;;3.9;3.6;;;;;;;3.34;78.94531;96052.92;;;;
2022/09/21 03:58:16;;;;;;;3.9;3.6;;;;;;;3.34;78.94531;96052.92;;;;
2022/09/21 03:59:16;;;;;;;3.9;3.6;;;;;;;3.34;78.94531;96052.92;;;;
2022/09/21 04:00:17;;;;;;;3.9;3.6;;;;;;;3.34;78.94531;96052.92;;;;
2022/09/21 04:01:18;;;;;;;3.9;3.6;;;;;;;3.34;78.94531;96052.92;;;;
2022/09/21 04:02:19;;;;;;;3.9;3.6;;;;;;;3.34;78.94531;96052.92;;;;
2022/09/21 04:03:19;;;;;;;3.9;3.6;;;;;;;3.34;78.94531;96052.92;;;;
2022/09/21 04:04:20;;;;;;;3.9;3.6;;;;;;;3.34;78.94531;96052.92;;;;
2022/09/21 04:05:21;;;;;;;3.9;3.6;;;;;;;3.34;78.94531;96052.92;;;;
2022/09/21 04:06:21;;;;;;;5.3;3.15;;;;;;;3.34;79.33594;96061.65;;;;
2022/09/21 04:07:22;;;;;;;5.3;3.15;;;;;;;3.34;79.33594;96061.65;;;;
2022/09/21 04:08:22;;;;;;;5.3;3.15;;;;;;;3.34;79.33594;96061.65;;;;
2022/09/21 04:09:23;;;;;;;5.3;3.15;;;;;;;3.34;79.33594;96061.65;;;;
2022/09/21 04:10:31;;;;;;;5.3;3.15;;;;;;;3.34;79.33594;96061.65;;;;
2022/09/21 04:11:32;;;;;;;5.3;3.15;;;;;;;3.34;79.33594;96061.65;;;;
2022/09/21 04:12:33;;;;;;;5.3;3.15;;;;;;;3.34;79.33594;96061.65;;;;
2022/09/21 04:13:34;;;;;;;5.3;3.15;;;;;;;3.34;79.33594;96061.65;;;;
2022/09/21 04:14:35;;;;;;;5.3;3.15;;;;;;;3.34;79.33594;96061.65;;;;
2022/09/21 04:15:36;;;;;;;5.3;3.15;;;;;;;3.34;79.33594;96061.65;;;;
2022/09/21 04:16:36;;;;;;;4.75;3.5;;;;;;;3.28;79.4502;96066.17;;;;
2022/09/21 04:17:37;;;;;;;4.75;3.5;;;;;;;3.28;79.4502;96066.17;;;;
2022/09/21 04:18:38;;;;;;;4.75;3.5;;;;;;;3.28;79.4502;96066.17;;;;
2022/09/21 04:19:38;;;;;;;4.75;3.5;;;;;;;3.28;79.4502;96066.17;;;;
2022/09/21 04:20:40;;;;;;;4.75;3.5;;;;;;;3.28;79.4502;96066.17;;;;
2022/09/21 04:21:40;;;;;;;4.75;3.5;;;;;;;3.28;79.4502;96066.17;;;;
2022/09/21 04:22:41;;;;;;;4.75;3.5;;;;;;;3.28;79.4502;96066.17;;;;
2022/09/21 04:23:42;;;;;;;4.75;3.5;;;;;;;3.28;79.4502;96066.17;;;;
2022/09/21 04:24:42;;;;;;;4.75;3.5;;;;;;;3.28;79.4502;96066.17;;;;
2022/09/21 04:25:43;;;;;;;4.75;3.5;;;;;;;3.28;79.4502;96066.17;;;;
2022/09/21 04:26:47;;;;;;;4.75;3.5;;;;;;;3.28;79.4502;96066.17;;;;
2022/09/21 04:27:48;;;;;;;4.8;3.65;;;;;;;3.17;79.63086;96071.61;;;;
2022/09/21 04:28:49;;;;;;;4.8;3.65;;;;;;;3.17;79.63086;96071.61;;;;
2022/09/21 04:29:50;;;;;;;4.8;3.65;;;;;;;3.17;79.63086;96071.61;;;;
2022/09/21 04:30:51;;;;;;;4.8;3.65;;;;;;;3.17;79.63086;96071.61;;;;
2022/09/21 04:31:52;;;;;;;4.8;3.65;;;;;;;3.17;79.63086;96071.61;;;;
2022/09/21 04:32:52;;;;;;;4.8;3.65;;;;;;;3.17;79.63086;96071.61;;;;
2022/09/21 04:33:52;;;;;;;4.8;3.65;;;;;;;3.17;79.63086;96071.61;;;;
2022/09/21 04:34:55;;;;;;;4.8;3.65;;;;;;;3.17;79.63086;96071.61;;;;
2022/09/21 04:35:55;;;;;;;4.8;3.65;;;;;;;3.17;79.63086;96071.61;;;;
2022/09/21 04:36:57;;;;;;;4.8;3.65;;;;;;;3.17;79.63086;96071.61;;;;
2022/09/21 04:37:57;;;;;;;5.85;3.2;;;;;;;3.03;79.94043;96072.6;;;;
2022/09/21 04:38:58;;;;;;;5.85;3.2;;;;;;;3.03;79.94043;96072.6;;;;
2022/09/21 04:39:59;;;;;;;5.85;3.2;;;;;;;3.03;79.94043;96072.6;;;;
2022/09/21 04:41:02;;;;;;;5.85;3.2;;;;;;;3.03;79.94043;96072.6;;;;
2022/09/21 04:42:03;;;;;;;5.85;3.2;;;;;;;3.03;79.94043;96072.6;;;;
2022/09/21 04:43:05;;;;;;;5.85;3.2;;;;;;;3.03;79.94043;96072.6;;;;
2022/09/21 04:44:05;;;;;;;5.85;3.2;;;;;;;3.03;79.94043;96072.6;;;;
2022/09/21 04:45:06;;;;;;;5.85;3.2;;;;;;;3.03;79.94043;96072.6;;;;
2022/09/21 04:46:08;;;;;;;5.85;3.2;;;;;;;3.03;79.94043;96072.6;;;;
2022/09/21 04:47:11;;;;;;;5.85;3.2;;;;;;;3.03;79.94043;96072.6;;;;
2022/09/21 04:48:11;;;;;;;5.85;3.2;;;;;;;3.03;79.94043;96072.6;;;;
2022/09/21 04:49:12;;;;;;;5.4;3.55;;;;;;;2.92;80.28027;96084.55;;;;
2022/09/21 04:50:12;;;;;;;5.4;3.55;;;;;;;2.92;80.28027;96084.55;;;;
2022/09/21 04:51:13;;;;;;;5.4;3.55;;;;;;;2.92;80.28027;96084.55;;;;
2022/09/21 04:52:15;;;;;;;5.4;3.55;;;;;;;2.92;80.28027;96084.55;;;;
2022/09/21 04:53:16;;;;;;;5.4;3.55;;;;;;;2.92;80.28027;96084.55;;;;
2022/09/21 04:54:16;;;;;;;5.4;3.55;;;;;;;2.92;80.28027;96084.55;;;;
2022/09/21 04:55:17;;;;;;;5.4;3.55;;;;;;;2.92;80.28027;96084.55;;;;
2022/09/21 04:56:18;;;;;;;5.4;3.55;;;;;;;2.92;80.28027;96084.55;;;;
2022/09/21 04:57:19;;;;;;;5.4;3.55;;;;;;;2.92;80.28027;96084.55;;;;
2022/09/21 04:58:19;;;;;;;5.4;3.55;;;;;;;2.92;80.28027;96084.55;;;;
2022/09/21 04:59:20;;;;;;;4.1;3.5;;;;;;;2.92;80.43848;96098.91;;;;
2022/09/21 05:00:21;;;;;;;4.1;3.5;;;;;;;2.92;80.43848;96098.91;;;;
2022/09/21 05:01:21;;;;;;;4.1;3.5;;;;;;;2.92;80.43848;96098.91;;;;
2022/09/21 05:02:22;;;;;;;4.1;3.5;;;;;;;2.92;80.43848;96098.91;;;;
2022/09/21 05:03:23;;;;;;;4.1;3.5;;;;;;;2.92;80.43848;96098.91;;;;
2022/09/21 05:04:25;;;;;;;4.1;3.5;;;;;;;2.92;80.43848;96098.91;;;;
2022/09/21 05:05:25;;;;;;;4.1;3.5;;;;;;;2.92;80.43848;96098.91;;;;
2022/09/21 05:06:26;;;;;;;4.1;3.5;;;;;;;2.92;80.43848;96098.91;;;;
2022/09/21 05:07:26;;;;;;;4.1;3.5;;;;;;;2.92;80.43848;96098.91;;;;
2022/09/21 05:13:27;;;;;;;4.299999;3.55;;;;;;;2.92;80.50195;96102.83;;;;
2022/09/21 05:14:27;;;;;;;4.299999;3.55;;;;;;;2.92;80.50195;96102.83;;;;
2022/09/21 05:15:28;;;;;;;4.299999;3.55;;;;;;;2.92;80.50195;96102.83;;;;
2022/09/21 05:16:28;;;;;;;4.299999;3.55;;;;;;;2.92;80.50195;96102.83;;;;
2022/09/21 05:17:29;;;;;;;4.299999;3.55;;;;;;;2.92;80.50195;96102.83;;;;
2022/09/21 05:18:29;;;;;;;4.299999;3.55;;;;;;;2.92;80.50195;96102.83;;;;
2022/09/21 05:19:30;;;;;;;4.299999;3.55;;;;;;;2.92;80.50195;96102.83;;;;
2022/09/21 05:20:31;;;;;;;5.550001;3.75;;;;;;;2.89;80.67578;96105.22;;;;
2022/09/21 05:21:31;;;;;;;5.550001;3.75;;;;;;;2.89;80.67578;96105.22;;;;
2022/09/21 05:22:32;;;;;;;5.550001;3.75;;;;;;;2.89;80.67578;96105.22;;;;
2022/09/21 05:23:32;;;;;;;5.550001;3.75;;;;;;;2.89;80.67578;96105.22;;;;
2022/09/21 05:24:33;;;;;;;5.550001;3.75;;;;;;;2.89;80.67578;96105.22;;;;
2022/09/21 05:25:34;;;;;;;5.550001;3.75;;;;;;;2.89;80.67578;96105.22;;;;
2022/09/21 05:26:34;;;;;;;5.550001;3.75;;;;;;;2.89;80.67578;96105.22;;;;
2022/09/21 05:27:35;;;;;;;5.550001;3.75;;;;;;;2.89;80.67578;96105.22;;;;
2022/09/21 05:28:35;;;;;;;5.550001;3.75;;;;;;;2.89;80.67578;96105.22;;;;
2022/09/21 05:29:36;;;;;;;5.550001;3.75;;;;;;;2.89;80.67578;96105.22;;;;
2022/09/21 05:30:37;;;;;;;5.550001;3.75;;;;;;;2.89;80.67578;96105.22;;;;
2022/09/21 05:31:38;;;;;;;5.550001;3.75;;;;;;;2.89;80.67578;96105.22;;;;
2022/09/21 05:32:45;;;;;;;5.550001;3.75;;;;;;;2.89;80.67578;96105.22;;;;
2022/09/21 05:33:52;;;;;;;5.550001;3.75;;;;;;;2.89;80.67578;96105.22;;;;
2022/09/21 05:34:57;;;;;;;5.550001;3.75;;;;;;;2.89;80.67578;96105.22;;;;
2022/09/21 05:36:06;;;;;;;5.550001;3.75;;;;;;;2.89;80.67578;96105.22;;;;
2022/09/21 05:37:26;;;;;;;5.550001;3.75;;;;;;;2.89;80.67578;96105.22;;;;
2022/09/21 05:38:39;;;;;;;5.550001;3.75;;;;;;;2.89;80.67578;96105.22;;;;
2022/09/21 05:39:40;;;;;;;5.550001;3.75;;;;;;;2.89;80.67578;96105.22;;;;
2022/09/21 05:40:41;;;;;;;5.550001;3.75;;;;;;;2.89;80.67578;96105.22;;;;
2022/09/21 05:41:43;;;;;;;5.45;4.349999;;;;;;;3.03;81.07129;96103.85;;;;
2022/09/21 05:42:44;;;;;;;5.45;4.349999;;;;;;;3.03;81.07129;96103.85;;;;
2022/09/21 05:43:45;;;;;;;5.45;4.349999;;;;;;;3.03;81.07129;96103.85;;;;
2022/09/21 05:44:48;;;;;;;5.45;4.349999;;;;;;;3.03;81.07129;96103.85;;;;
2022/09/21 05:45:49;;;;;;;5.45;4.349999;;;;;;;3.03;81.07129;96103.85;;;;
2022/09/21 05:46:53;;;;;;;5.45;4.349999;;;;;;;3.03;81.07129;96103.85;;;;
2022/09/21 05:48:01;;;;;;;5.45;4.349999;;;;;;;3.03;81.07129;96103.85;;;;
2022/09/21 05:49:08;;;;;;;5.45;4.349999;;;;;;;3.03;81.07129;96103.85;;;;
2022/09/21 05:50:17;;;;;;;5.45;4.349999;;;;;;;3.03;81.07129;96103.85;;;;
2022/09/21 05:51:32;;;;;;;5.45;4.349999;;;;;;;3.03;81.07129;96103.85;;;;
2022/09/21 05:52:38;;;;;;;6.550001;4.799999;;;;;;;3.21;81.15723;96105.59;;;;
2022/09/21 05:53:50;;;;;;;6.550001;4.799999;;;;;;;3.21;81.15723;96105.59;;;;
2022/09/21 05:55:00;;;;;;;6.550001;4.799999;;;;;;;3.21;81.15723;96105.59;;;;
2022/09/21 05:56:12;;;;;;;6.550001;4.799999;;;;;;;3.21;81.15723;96105.59;;;;
2022/09/21 05:57:21;;;;;;;6.550001;4.799999;;;;;;;3.21;81.15723;96105.59;;;;
2022/09/21 05:58:36;;;;;;;6.550001;4.799999;;;;;;;3.21;81.15723;96105.59;;;;
2022/09/21 05:59:46;;;;;;;6.550001;4.799999;;;;;;;3.21;81.15723;96105.59;;;;
2022/09/21 06:01:00;;;;;;;6.550001;4.799999;;;;;;;3.21;81.15723;96105.59;;;;
2022/09/21 06:02:15;;;;;;;6.550001;4.799999;;;;;;;3.21;81.15723;96105.59;;;;
2022/09/21 06:03:26;;;;;;;5.800001;4.75;;;;;;;3.54;81.2207;96114.12;;;;
2022/09/21 06:04:28;;;;;;;5.800001;4.75;;;;;;;3.54;81.2207;96114.12;;;;
2022/09/21 06:05:29;;;;;;;5.800001;4.75;;;;;;;3.54;81.2207;96114.12;;;;
2022/09/21 06:06:30;;;;;;;5.800001;4.75;;;;;;;3.54;81.2207;96114.12;;;;
2022/09/21 06:07:30;;;;;;;5.800001;4.75;;;;;;;3.54;81.2207;96114.12;;;;
2022/09/21 06:08:31;;;;;;;5.800001;4.75;;;;;;;3.54;81.2207;96114.12;;;;
2022/09/21 06:09:32;;;;;;;5.800001;4.75;;;;;;;3.54;81.2207;96114.12;;;;
2022/09/21 06:10:32;;;;;;;5.800001;4.75;;;;;;;3.54;81.2207;96114.12;;;;
2022/09/21 06:11:34;;;;;;;5.800001;4.75;;;;;;;3.54;81.2207;96114.12;;;;
2022/09/21 06:12:34;;;;;;;5.800001;4.75;;;;;;;3.54;81.2207;96114.12;;;;
2022/09/21 06:13:36;;;;;;;5.800001;4.75;;;;;;;3.54;81.2207;96114.12;;;;